createdAt,value
2022-12-11T00:29:29.574Z,-2.23
2022-12-11T00:59:32.555Z,-2.32
2022-12-11T01:29:35.483Z,-2.36
2022-12-11T01:59:38.809Z,-2.34
2022-12-11T02:29:42.102Z,-2.45
2022-12-11T02:59:45.242Z,-2.30
2022-12-11T03:29:48.540Z,-2.57
2022-12-11T03:59:51.315Z,-2.68
2022-12-11T04:29:55.503Z,-2.74
2022-12-11T04:59:58.629Z,-2.73
2022-12-11T05:30:02.115Z,-2.86
2022-12-11T06:00:05.051Z,-2.73
2022-12-11T06:30:08.177Z,-2.61
2022-12-11T07:00:12.068Z,-2.85
2022-12-11T07:30:15.711Z,-2.88
2022-12-11T08:00:18.577Z,-3.07
2022-12-11T08:30:22.795Z,-3.14
2022-12-11T09:00:25.656Z,-3.32
2022-12-11T09:30:29.525Z,-3.26
2022-12-11T10:00:32.307Z,-3.01
2022-12-11T10:30:36.408Z,-2.89
2022-12-11T11:00:39.273Z,-2.78
2022-12-11T11:30:43.478Z,-2.67
2022-12-11T12:00:46.322Z,-2.51
2022-12-11T12:30:50.424Z,-2.39
2022-12-11T13:00:53.416Z,-2.45
2022-12-11T13:30:57.365Z,-2.42
2022-12-11T14:01:00.482Z,-2.27
2022-12-11T14:31:04.189Z,-2.16
2022-12-11T15:01:07.219Z,-2.13
2022-12-11T15:31:11.540Z,-2.24
2022-12-11T16:01:14.527Z,-2.46
2022-12-11T16:31:18.250Z,-2.70
2022-12-11T17:01:21.849Z,-2.85
2022-12-11T17:31:26.086Z,-2.95
2022-12-11T18:01:32.786Z,-3.02
2022-12-11T18:31:42.180Z,-3.04
2022-12-11T19:01:46.193Z,-2.98
2022-12-11T19:31:49.502Z,-2.97
2022-12-11T20:01:53.124Z,-2.90
2022-12-11T20:31:56.544Z,-2.95
2022-12-11T21:01:59.457Z,-3.06
2022-12-11T21:32:03.174Z,-3.04
2022-12-11T22:02:06.084Z,-3.09
2022-12-11T22:32:09.895Z,-3.28
2022-12-11T23:02:13.435Z,-3.52
2022-12-11T23:32:16.964Z,-3.66
